createdAt,value
2019-05-18T00:02:12.665Z,13.70
2019-05-18T00:04:41.747Z,13.70
2019-05-18T00:07:10.877Z,13.60
2019-05-18T00:09:39.892Z,13.60
2019-05-18T00:12:09.071Z,13.60
2019-05-18T00:14:38.077Z,13.60
2019-05-18T00:17:09.521Z,13.60
2019-05-18T00:19:38.066Z,13.50
2019-05-18T00:22:08.930Z,13.60
2019-05-18T00:24:38.141Z,13.50
2019-05-18T00:27:09.365Z,13.50
2019-05-18T00:29:38.405Z,13.50
2019-05-18T00:32:07.486Z,13.50
2019-05-18T00:34:36.937Z,13.40
2019-05-18T00:37:06.073Z,13.40
2019-05-18T00:39:35.126Z,13.40
2019-05-18T00:42:04.316Z,13.40
2019-05-18T00:44:33.834Z,13.40
2019-05-18T00:47:02.997Z,13.40
2019-05-18T00:49:32.093Z,13.30
2019-05-18T00:52:01.338Z,13.40
2019-05-18T00:54:30.447Z,13.30
2019-05-18T00:56:59.761Z,13.30
2019-05-18T00:59:29.240Z,13.20
2019-05-18T01:01:58.442Z,13.20
2019-05-18T01:04:27.647Z,13.20
2019-05-18T01:06:56.829Z,13.20
2019-05-18T01:09:25.972Z,13.20
2019-05-18T01:11:55.013Z,13.10
2019-05-18T01:14:24.890Z,13.10
2019-05-18T01:16:53.917Z,13.10
2019-05-18T01:19:22.928Z,13.00
2019-05-18T01:21:52.116Z,13.00
2019-05-18T01:24:21.530Z,13.00
2019-05-18T01:26:50.673Z,13.00
2019-05-18T01:29:19.775Z,12.90
2019-05-18T01:31:48.906Z,12.90
2019-05-18T01:34:18.042Z,12.90
2019-05-18T01:36:47.154Z,12.90
2019-05-18T01:39:16.327Z,12.80
2019-05-18T01:41:46.027Z,12.80
2019-05-18T01:44:15.085Z,12.80
2019-05-18T01:46:44.289Z,12.80
2019-05-18T01:49:13.439Z,12.80
2019-05-18T01:51:42.565Z,12.80
2019-05-18T01:54:11.792Z,12.70
2019-05-18T01:56:40.857Z,12.70
2019-05-18T01:59:09.915Z,12.70
2019-05-18T02:01:39.143Z,12.70
2019-05-18T02:04:08.320Z,12.60
2019-05-18T02:06:37.441Z,12.60
2019-05-18T02:09:08.350Z,12.60
2019-05-18T02:11:37.544Z,12.60
2019-05-18T02:14:06.877Z,12.50
2019-05-18T02:16:36.166Z,12.50
2019-05-18T02:19:05.390Z,12.60
2019-05-18T02:21:34.528Z,12.50
2019-05-18T02:24:03.859Z,12.50
2019-05-18T02:26:32.986Z,12.50
2019-05-18T02:29:02.234Z,12.50
2019-05-18T02:31:31.326Z,12.50
2019-05-18T02:34:00.427Z,12.50
2019-05-18T02:36:29.794Z,12.50
2019-05-18T02:38:58.899Z,12.50
2019-05-18T02:41:28.034Z,12.40
2019-05-18T02:43:57.142Z,12.40
2019-05-18T02:46:26.262Z,12.40
2019-05-18T02:48:55.438Z,12.40
2019-05-18T02:51:24.633Z,12.40
2019-05-18T02:53:53.790Z,12.40
2019-05-18T02:56:22.931Z,12.30
2019-05-18T02:58:52.056Z,12.20
2019-05-18T03:01:21.204Z,12.30
2019-05-18T03:03:50.813Z,12.20
2019-05-18T03:06:20.005Z,12.20
2019-05-18T03:08:49.480Z,12.20
2019-05-18T03:11:18.607Z,12.10
2019-05-18T03:13:47.807Z,12.10
2019-05-18T03:16:16.991Z,12.10
2019-05-18T03:18:46.184Z,12.10
2019-05-18T03:21:15.390Z,12.10
2019-05-18T03:23:44.568Z,12.00
2019-05-18T03:26:13.675Z,12.00
2019-05-18T03:28:42.848Z,12.00
2019-05-18T03:31:11.841Z,12.00
2019-05-18T03:33:41.037Z,12.00
2019-05-18T03:36:10.282Z,12.10
2019-05-18T03:38:39.444Z,12.10
2019-05-18T03:41:08.655Z,12.00
2019-05-18T03:43:37.751Z,12.10
2019-05-18T03:46:06.830Z,12.00
2019-05-18T03:48:35.825Z,12.00
2019-05-18T03:51:05.149Z,12.00
2019-05-18T03:53:34.424Z,12.10
2019-05-18T03:56:03.634Z,12.10
2019-05-18T03:58:32.882Z,12.10
2019-05-18T04:01:02.048Z,12.10
2019-05-18T04:03:31.303Z,12.00
2019-05-18T04:06:00.435Z,12.10
2019-05-18T04:08:29.556Z,12.10
2019-05-18T04:10:59.036Z,12.00
2019-05-18T04:13:28.219Z,12.10
2019-05-18T04:15:57.329Z,12.10
2019-05-18T04:18:27.014Z,12.10
2019-05-18T04:20:56.049Z,12.10
2019-05-18T04:23:25.254Z,12.10
2019-05-18T04:25:54.302Z,12.10
2019-05-18T04:28:23.395Z,12.10
2019-05-18T04:30:52.975Z,12.10
2019-05-18T04:33:21.995Z,12.20
2019-05-18T04:35:51.226Z,12.20
2019-05-18T04:38:20.736Z,12.30
2019-05-18T04:40:50.057Z,12.30
2019-05-18T04:43:19.314Z,12.20
2019-05-18T04:45:48.408Z,12.20
2019-05-18T04:48:17.332Z,12.20
2019-05-18T04:50:46.414Z,12.10
2019-05-18T04:53:15.478Z,12.10
2019-05-18T04:55:44.565Z,12.00
2019-05-18T04:58:13.708Z,12.00
2019-05-18T05:00:42.821Z,12.10
2019-05-18T05:03:11.940Z,12.00
2019-05-18T05:05:40.953Z,12.00
2019-05-18T05:08:10.174Z,12.00
2019-05-18T05:10:39.707Z,12.10
2019-05-18T05:13:08.797Z,12.10
2019-05-18T05:15:37.843Z,12.20
2019-05-18T05:18:06.944Z,12.20
2019-05-18T05:20:36.087Z,12.30
2019-05-18T05:23:06.120Z,12.40
2019-05-18T05:25:35.810Z,12.50
2019-05-18T05:28:05.026Z,12.60
2019-05-18T05:30:34.171Z,12.70
2019-05-18T05:33:03.188Z,12.80
2019-05-18T05:35:32.255Z,12.80
2019-05-18T05:38:01.333Z,12.80
2019-05-18T05:40:30.291Z,12.90
2019-05-18T05:42:59.368Z,13.00
2019-05-18T05:45:28.808Z,13.10
2019-05-18T05:47:57.915Z,13.10
2019-05-18T05:50:35.296Z,13.20
2019-05-18T05:52:57.790Z,13.30
2019-05-18T05:55:27.026Z,13.40
2019-05-18T05:57:56.481Z,13.50
2019-05-18T06:00:25.569Z,13.60
2019-05-18T06:02:54.622Z,13.70
2019-05-18T06:05:23.735Z,13.80
2019-05-18T06:07:52.784Z,13.90
2019-05-18T06:10:21.843Z,14.00
2019-05-18T06:12:51.136Z,14.10
2019-05-18T06:15:20.300Z,14.20
2019-05-18T06:17:49.917Z,14.30
2019-05-18T06:20:19.055Z,14.30
2019-05-18T06:22:48.557Z,14.50
2019-05-18T06:25:17.794Z,14.60
2019-05-18T06:27:46.916Z,14.60
2019-05-18T06:30:16.969Z,14.70
2019-05-18T06:32:46.640Z,14.80
2019-05-18T06:35:16.227Z,14.90
2019-05-18T06:37:45.427Z,14.90
2019-05-18T06:40:14.764Z,14.90
2019-05-18T06:42:43.818Z,15.00
2019-05-18T06:45:13.503Z,15.20
2019-05-18T06:47:42.696Z,15.30
2019-05-18T06:50:13.295Z,15.40
2019-05-18T06:52:44.813Z,15.50
2019-05-18T06:55:14.036Z,15.60
2019-05-18T06:57:44.641Z,15.70
2019-05-18T07:00:17.612Z,15.80
2019-05-18T07:02:49.510Z,15.80
2019-05-18T07:05:18.051Z,15.90
2019-05-18T07:07:47.254Z,16.10
2019-05-18T07:10:16.456Z,16.30
2019-05-18T07:12:46.459Z,16.40
2019-05-18T07:15:16.013Z,16.60
2019-05-18T07:17:45.137Z,16.70
2019-05-18T07:20:14.371Z,16.90
2019-05-18T07:22:43.513Z,17.00
2019-05-18T07:25:13.195Z,17.20
2019-05-18T07:27:42.540Z,17.10
2019-05-18T07:30:14.144Z,17.40
2019-05-18T07:32:43.313Z,17.40
2019-05-18T07:35:12.882Z,17.60
2019-05-18T07:37:42.073Z,17.90
2019-05-18T07:40:11.572Z,17.90
2019-05-18T07:42:40.596Z,18.00
2019-05-18T07:45:10.142Z,18.20
2019-05-18T07:47:39.299Z,18.20
2019-05-18T07:50:08.777Z,18.30
2019-05-18T07:52:37.916Z,18.50
2019-05-18T07:55:08.849Z,18.70
2019-05-18T07:57:37.979Z,18.90
2019-05-18T08:00:07.738Z,19.20
2019-05-18T08:02:36.955Z,19.40
2019-05-18T08:05:06.662Z,19.60
2019-05-18T08:07:36.102Z,19.50
2019-05-18T08:10:05.466Z,19.60
2019-05-18T08:12:34.708Z,19.70
2019-05-18T08:15:07.224Z,19.50
2019-05-18T08:18:07.018Z,19.60
2019-05-18T08:20:40.353Z,19.70
2019-05-18T08:23:20.098Z,20.10
2019-05-18T08:25:49.680Z,20.30
2019-05-18T08:28:19.111Z,20.90
2019-05-18T08:30:57.922Z,21.00
2019-05-18T08:33:27.153Z,20.80
2019-05-18T08:36:05.757Z,21.20
2019-05-18T08:38:57.305Z,21.60
2019-05-18T08:41:27.334Z,21.90
2019-05-18T08:43:56.762Z,21.90
2019-05-18T08:46:45.147Z,22.40
2019-05-18T08:49:28.486Z,21.80
2019-05-18T08:52:08.170Z,22.30
2019-05-18T08:54:35.185Z,22.90
2019-05-18T08:57:07.907Z,23.60
2019-05-18T08:59:39.868Z,23.20
2019-05-18T09:02:11.952Z,23.80
2019-05-18T09:04:50.152Z,23.80
2019-05-18T09:07:45.440Z,24.30
2019-05-18T09:13:58.249Z,25.00
2019-05-18T09:16:47.907Z,25.90
2019-05-18T09:19:28.944Z,25.90
2019-05-18T09:22:03.483Z,25.80
2019-05-18T09:24:33.627Z,25.40
2019-05-18T09:27:04.917Z,25.80
2019-05-18T09:29:40.326Z,25.80
2019-05-18T09:32:20.584Z,26.10
2019-05-18T09:35:16.854Z,27.50
2019-05-18T09:37:46.523Z,27.70
2019-05-18T09:40:17.298Z,27.60
2019-05-18T09:42:47.982Z,27.20
2019-05-18T09:45:19.317Z,27.80
2019-05-18T09:47:49.193Z,28.40
2019-05-18T09:50:18.538Z,28.40
2019-05-18T09:52:47.731Z,29.00
2019-05-18T09:55:17.239Z,27.60
2019-05-18T09:57:46.720Z,27.20
2019-05-18T10:00:18.247Z,28.30
2019-05-18T10:02:47.466Z,29.30
2019-05-18T10:05:17.023Z,28.40
2019-05-18T10:07:46.166Z,27.20
2019-05-18T10:10:15.954Z,27.00
2019-05-18T10:12:45.597Z,27.10
2019-05-18T10:15:15.747Z,26.60
2019-05-18T10:17:45.330Z,26.30
2019-05-18T10:20:15.121Z,25.50
2019-05-18T10:22:55.097Z,25.50
2019-05-18T10:25:16.957Z,25.80
2019-05-18T10:27:46.279Z,26.80
2019-05-18T10:30:15.672Z,27.10
2019-05-18T10:32:47.277Z,27.40
2019-05-18T10:35:16.991Z,27.80
2019-05-18T10:37:46.243Z,27.30
2019-05-18T10:40:16.964Z,27.00
2019-05-18T10:42:46.619Z,27.00
2019-05-18T10:45:21.678Z,27.10
2019-05-18T10:47:51.049Z,27.70
2019-05-18T10:50:21.675Z,27.10
2019-05-18T10:52:50.939Z,27.70
2019-05-18T10:55:20.864Z,27.50
2019-05-18T10:57:50.206Z,27.50
2019-05-18T11:00:22.123Z,27.00
2019-05-18T11:02:51.426Z,26.90
2019-05-18T11:05:20.866Z,26.20
2019-05-18T11:07:50.193Z,25.30
2019-05-18T11:10:20.962Z,24.50
2019-05-18T11:12:59.024Z,24.30
2019-05-18T11:15:26.135Z,23.90
2019-05-18T11:17:55.665Z,24.10
2019-05-18T11:20:25.052Z,25.10
2019-05-18T11:22:57.130Z,26.10
2019-05-18T11:25:26.696Z,26.20
2019-05-18T11:27:56.024Z,25.40
2019-05-18T11:30:25.480Z,26.10
2019-05-18T11:32:55.335Z,27.10
2019-05-18T11:35:27.693Z,27.80
2019-05-18T11:37:57.198Z,28.40
2019-05-18T11:40:35.065Z,27.50
2019-05-18T11:43:04.935Z,27.00
2019-05-18T11:45:41.004Z,25.90
2019-05-18T11:48:08.028Z,25.30
2019-05-18T11:50:40.770Z,25.30
2019-05-18T11:53:10.147Z,26.00
2019-05-18T11:55:40.160Z,26.50
2019-05-18T11:58:14.984Z,25.90
2019-05-18T12:00:50.690Z,25.30
2019-05-18T12:03:23.093Z,25.20
2019-05-18T12:06:04.548Z,25.70
2019-05-18T12:08:37.124Z,26.00
2019-05-18T12:11:06.866Z,25.30
2019-05-18T12:13:40.445Z,25.00
2019-05-18T12:16:11.160Z,24.80
2019-05-18T12:18:40.513Z,24.40
2019-05-18T12:21:24.630Z,25.00
2019-05-18T12:24:14.753Z,24.90
2019-05-18T12:26:41.188Z,24.40
2019-05-18T12:29:09.640Z,24.30
2019-05-18T12:31:39.145Z,24.30
2019-05-18T12:34:08.451Z,24.20
2019-05-18T12:36:47.332Z,24.50
2019-05-18T12:39:17.922Z,25.00
2019-05-18T12:41:47.794Z,25.10
2019-05-18T12:44:18.345Z,24.90
2019-05-18T12:46:47.832Z,24.50
2019-05-18T12:49:19.325Z,24.20
2019-05-18T12:51:51.754Z,24.30
2019-05-18T12:54:29.030Z,25.40
2019-05-18T12:56:56.854Z,26.90
2019-05-18T12:59:40.219Z,27.50
2019-05-18T13:02:10.116Z,28.00
2019-05-18T13:04:41.871Z,28.40
2019-05-18T13:07:10.623Z,28.20
2019-05-18T13:09:42.733Z,27.60
2019-05-18T13:12:17.107Z,27.60
2019-05-18T13:14:50.045Z,28.40
2019-05-18T13:17:21.348Z,27.40
2019-05-18T13:19:55.330Z,26.80
2019-05-18T13:22:25.122Z,26.80
2019-05-18T13:24:54.724Z,26.30
2019-05-18T13:27:42.545Z,27.20
2019-05-18T13:30:13.099Z,27.90
2019-05-18T13:32:44.228Z,28.70
2019-05-18T13:35:16.161Z,28.80
2019-05-18T13:38:04.065Z,28.10
2019-05-18T13:40:34.300Z,28.30
2019-05-18T13:43:15.548Z,27.90
2019-05-18T13:45:44.497Z,27.10
2019-05-18T13:48:14.254Z,28.00
2019-05-18T13:50:47.210Z,28.10
2019-05-18T13:53:22.763Z,29.30
2019-05-18T13:55:52.227Z,29.80
2019-05-18T13:58:25.812Z,29.50
2019-05-18T14:00:56.257Z,28.70
2019-05-18T14:03:33.886Z,28.50
2019-05-18T14:06:08.596Z,28.20
2019-05-18T14:08:39.793Z,28.40
2019-05-18T14:11:13.959Z,28.90
2019-05-18T14:13:45.358Z,28.30
2019-05-18T14:16:21.481Z,29.10
2019-05-18T14:18:51.540Z,29.10
2019-05-18T14:21:21.232Z,28.20
2019-05-18T14:23:50.863Z,27.70
2019-05-18T14:26:27.672Z,26.70
2019-05-18T14:28:56.154Z,26.00
2019-05-18T14:31:26.187Z,25.40
2019-05-18T14:33:55.684Z,25.30
2019-05-18T14:36:27.257Z,26.00
2019-05-18T14:38:57.073Z,26.60
2019-05-18T14:41:27.956Z,27.10
2019-05-18T14:43:59.650Z,28.00
2019-05-18T14:46:35.218Z,28.20
2019-05-18T14:49:04.712Z,28.10
2019-05-18T14:51:34.151Z,27.90
2019-05-18T14:54:03.554Z,27.50
2019-05-18T14:56:32.959Z,27.00
2019-05-18T14:59:02.195Z,26.70
2019-05-18T15:01:31.629Z,26.60
2019-05-18T15:04:00.946Z,26.30
2019-05-18T15:06:30.486Z,26.00
2019-05-18T15:08:59.597Z,26.30
2019-05-18T15:11:28.833Z,26.80
2019-05-18T15:13:58.029Z,26.90
2019-05-18T15:16:27.129Z,26.30
2019-05-18T15:18:56.613Z,26.10
2019-05-18T15:21:25.892Z,26.00
2019-05-18T15:23:58.950Z,25.90
2019-05-18T15:26:28.474Z,26.20
2019-05-18T15:28:58.765Z,26.10
2019-05-18T15:31:28.022Z,25.80
2019-05-18T15:33:57.436Z,25.50
2019-05-18T15:36:27.197Z,25.10
2019-05-18T15:38:58.287Z,24.70
2019-05-18T15:41:27.723Z,24.70
2019-05-18T15:43:56.955Z,24.80
2019-05-18T15:46:26.239Z,25.00
2019-05-18T15:48:55.528Z,24.80
2019-05-18T15:51:24.785Z,24.90
2019-05-18T15:53:54.289Z,24.70
2019-05-18T15:56:23.717Z,24.80
2019-05-18T15:58:53.263Z,24.70
2019-05-18T16:01:22.778Z,24.50
2019-05-18T16:03:52.428Z,24.40
2019-05-18T16:06:21.640Z,24.40
2019-05-18T16:08:51.163Z,24.40
2019-05-18T16:11:20.598Z,24.30
2019-05-18T16:13:50.014Z,24.40
2019-05-18T16:16:19.356Z,24.40
2019-05-18T16:18:48.641Z,24.50
2019-05-18T16:21:18.086Z,24.50
2019-05-18T16:23:47.658Z,24.60
2019-05-18T16:26:21.725Z,24.60
2019-05-18T16:28:50.776Z,24.40
2019-05-18T16:31:26.719Z,24.40
2019-05-18T16:34:01.442Z,24.30
2019-05-18T16:36:34.399Z,24.40
2019-05-18T16:39:06.171Z,24.30
2019-05-18T16:41:46.802Z,24.30
2019-05-18T16:44:16.655Z,24.30
2019-05-18T16:46:49.794Z,24.20
2019-05-18T16:49:21.914Z,24.20
2019-05-18T16:51:51.549Z,24.10
2019-05-18T16:54:22.064Z,24.10
2019-05-18T16:56:56.145Z,24.10
2019-05-18T16:59:28.368Z,24.00
2019-05-18T17:02:03.003Z,23.90
2019-05-18T17:04:56.908Z,23.80
2019-05-18T17:07:13.950Z,23.70
2019-05-18T17:09:59.522Z,23.60
2019-05-18T17:12:22.420Z,23.60
2019-05-18T17:14:55.663Z,23.60
2019-05-18T17:17:41.356Z,23.50
2019-05-18T17:20:11.293Z,23.50
2019-05-18T17:22:41.262Z,23.50
2019-05-18T17:25:29.901Z,23.50
2019-05-18T17:27:59.601Z,23.40
2019-05-18T17:33:39.959Z,23.30
2019-05-18T17:36:22.499Z,23.40
2019-05-18T17:39:13.314Z,23.30
2019-05-18T17:41:43.068Z,23.30
2019-05-18T17:44:12.337Z,23.30
2019-05-18T17:46:41.654Z,23.30
2019-05-18T17:49:25.900Z,23.20
2019-05-18T17:51:42.307Z,23.20
2019-05-18T17:54:11.614Z,23.20
2019-05-18T17:56:40.855Z,23.10
2019-05-18T17:59:10.057Z,23.10
2019-05-18T18:01:39.740Z,23.00
2019-05-18T18:04:08.901Z,22.90
2019-05-18T18:06:38.820Z,22.90
2019-05-18T18:09:08.179Z,22.80
2019-05-18T18:11:37.385Z,22.70
2019-05-18T18:14:08.640Z,22.70
2019-05-18T18:16:40.782Z,22.60
2019-05-18T18:19:10.605Z,22.70
2019-05-18T18:21:40.617Z,22.60
2019-05-18T18:24:09.821Z,22.50
2019-05-18T18:26:40.428Z,22.50
2019-05-18T18:29:09.982Z,22.40
2019-05-18T18:31:42.133Z,22.40
2019-05-18T18:34:11.315Z,22.30
2019-05-18T18:36:42.310Z,22.20
2019-05-18T18:39:12.973Z,22.20
2019-05-18T18:41:42.596Z,22.10
2019-05-18T18:44:11.875Z,22.00
2019-05-18T18:46:41.210Z,22.00
2019-05-18T18:49:10.324Z,21.90
2019-05-18T18:51:39.578Z,21.90
2019-05-18T18:54:08.775Z,21.80
2019-05-18T18:56:38.017Z,21.70
2019-05-18T18:59:07.272Z,21.70
2019-05-18T19:01:36.558Z,21.60
2019-05-18T19:04:05.796Z,21.50
2019-05-18T19:06:35.191Z,21.40
2019-05-18T19:09:05.587Z,21.30
2019-05-18T19:11:34.884Z,21.30
2019-05-18T19:14:04.717Z,21.20
2019-05-18T19:16:33.911Z,21.10
2019-05-18T19:19:03.115Z,21.10
2019-05-18T19:21:32.342Z,21.00
2019-05-18T19:24:01.835Z,20.90
2019-05-18T19:26:31.351Z,20.80
2019-05-18T19:29:00.638Z,20.70
2019-05-18T19:31:29.911Z,20.70
2019-05-18T19:33:59.084Z,20.60
2019-05-18T19:36:28.313Z,20.50
2019-05-18T19:38:57.574Z,20.50
2019-05-18T19:41:26.901Z,20.40
2019-05-18T19:43:56.162Z,20.30
2019-05-18T19:46:25.542Z,20.30
2019-05-18T19:48:54.871Z,20.30
2019-05-18T19:51:24.149Z,20.20
2019-05-18T19:53:53.398Z,20.20
2019-05-18T19:56:22.658Z,20.10
2019-05-18T19:58:51.927Z,20.00
2019-05-18T20:01:21.533Z,20.00
2019-05-18T20:03:50.757Z,20.00
2019-05-18T20:06:20.017Z,20.00
2019-05-18T20:08:49.429Z,19.90
2019-05-18T20:11:18.914Z,19.90
2019-05-18T20:13:48.283Z,19.90
2019-05-18T20:16:17.504Z,19.90
2019-05-18T20:18:46.630Z,19.80
2019-05-18T20:21:15.887Z,19.80
2019-05-18T20:23:45.133Z,19.80
2019-05-18T20:26:14.374Z,19.70
2019-05-18T20:28:43.683Z,19.60
2019-05-18T20:31:14.484Z,19.60
2019-05-18T20:33:43.744Z,19.50
2019-05-18T20:36:13.008Z,19.50
2019-05-18T20:38:42.518Z,19.40
2019-05-18T20:41:12.099Z,19.40
2019-05-18T20:43:42.628Z,19.30
2019-05-18T20:46:12.027Z,19.20
2019-05-18T20:48:41.405Z,19.20
2019-05-18T20:51:10.818Z,19.10
2019-05-18T20:53:41.104Z,19.10
2019-05-18T20:56:10.407Z,19.10
2019-05-18T20:58:40.675Z,19.00
2019-05-18T21:01:10.349Z,19.00
2019-05-18T21:03:39.621Z,19.00
2019-05-18T21:06:08.934Z,18.90
2019-05-18T21:08:38.229Z,18.80
2019-05-18T21:11:07.502Z,18.70
2019-05-18T21:13:36.729Z,18.70
2019-05-18T21:16:05.965Z,18.50
2019-05-18T21:18:35.202Z,18.50
2019-05-18T21:21:04.474Z,18.50
2019-05-18T21:23:33.762Z,18.40
2019-05-18T21:26:03.176Z,18.30
2019-05-18T21:28:32.558Z,18.30
2019-05-18T21:31:01.976Z,18.30
2019-05-18T21:33:31.172Z,18.30
2019-05-18T21:36:00.243Z,18.20
2019-05-18T21:38:29.466Z,18.20
2019-05-18T21:40:58.573Z,18.20
2019-05-18T21:43:36.777Z,18.10
2019-05-18T21:46:05.949Z,18.10
2019-05-18T21:48:35.232Z,18.00
2019-05-18T21:51:04.624Z,18.00
2019-05-18T21:53:36.619Z,18.00
2019-05-18T21:56:05.896Z,17.90
2019-05-18T21:58:37.174Z,17.80
2019-05-18T22:01:06.905Z,17.80
2019-05-18T22:03:36.136Z,17.80
2019-05-18T22:06:05.427Z,17.70
2019-05-18T22:08:34.715Z,17.70
2019-05-18T22:11:03.991Z,17.60
2019-05-18T22:13:33.222Z,17.60
2019-05-18T22:16:02.559Z,17.60
2019-05-18T22:18:31.851Z,17.60
2019-05-18T22:21:01.131Z,17.60
2019-05-18T22:23:32.705Z,17.50
2019-05-18T22:26:01.836Z,17.50
2019-05-18T22:28:31.061Z,17.50
2019-05-18T22:31:00.203Z,17.50
2019-05-18T22:33:29.354Z,17.50
2019-05-18T22:35:58.775Z,17.50
2019-05-18T22:38:28.000Z,17.40
2019-05-18T22:40:57.216Z,17.40
2019-05-18T22:43:26.552Z,17.40
2019-05-18T22:45:55.794Z,17.30
2019-05-18T22:48:39.991Z,17.30
2019-05-18T22:50:55.956Z,17.30
2019-05-18T22:53:25.187Z,17.30
2019-05-18T22:55:54.679Z,17.30
2019-05-18T22:58:23.817Z,17.30
2019-05-18T23:00:53.018Z,17.20
2019-05-18T23:03:22.179Z,17.20
2019-05-18T23:05:51.413Z,17.10
2019-05-18T23:08:20.735Z,17.20
2019-05-18T23:10:49.901Z,17.10
2019-05-18T23:13:20.260Z,17.10
2019-05-18T23:15:49.648Z,17.00
2019-05-18T23:18:18.953Z,17.00
2019-05-18T23:20:48.166Z,17.00
2019-05-18T23:23:17.544Z,16.90
2019-05-18T23:25:46.727Z,16.90
2019-05-18T23:28:15.862Z,16.80
2019-05-18T23:30:45.127Z,16.80
2019-05-18T23:33:14.344Z,16.80
2019-05-18T23:35:43.643Z,16.80
2019-05-18T23:38:12.930Z,16.70
2019-05-18T23:40:42.158Z,16.70
2019-05-18T23:43:11.459Z,16.60
2019-05-18T23:45:40.576Z,16.60
2019-05-18T23:48:10.593Z,16.60
2019-05-18T23:50:39.955Z,16.60
2019-05-18T23:53:09.959Z,16.60
2019-05-18T23:55:39.259Z,16.50
2019-05-18T23:58:09.538Z,16.50
